Wednesday, August 15, 2018, 4:49 AM GMT
Back to Local

CYGK, Kingston, Ont.

Location: , , Canada Lat: 44.217
Local Time: 4:49 AM GMT ( 4:49 GMT) Lon: -76.6
Time Zone: GMT Elev: 305 ft

Show me the last for .
Show Decoded

2018-08-15 03:00 METAR CYGK 150300Z 26005KT 15SM FEW070 SCT170 23/22 A2981 RMK AC2AC2 LAST STFD
                 OBS/NEXT 151000 UTC SLP094 DENSITY ALT 1400FT =
2018-08-15 02:00 METAR CYGK 150200Z 26003KT 15SM SCT078 SCT250 23/22 A2982 RMK AC3CI1 SLP097
                 DENSITY ALT 1500FT =
2018-08-15 01:00 METAR CYGK 150100Z 29004KT 15SM FEW030TCU SCT070 BKN250 23/22 A2981 RMK
                 TCU1AC3CI3 SLP097 DENSITY ALT 1400FT =
2018-08-15 00:00 METAR CYGK 150000Z 00000KT 15SM FEW030TCU BKN085 BKN160 24/22 A2981 RMK
                 TCU1AC4AC2 SLP096 DENSITY ALT 1600FT =
2018-08-14 23:00 METAR CYGK 142300Z 32004KT 15SM VCSH FEW030TCU BKN080 BKN130 25/21 A2980 RMK
                 TCU2AC3AC2 SLP093 DENSITY ALT 1700FT =
2018-08-14 22:00 METAR CYGK 142200Z 32006KT 290V010 15SM VCSH SCT025TCU BKN080 OVC120 25/22 A2980
                 RMK TCU3AC3AC2 SLP091 DENSITY ALT 1800FT =
2018-08-14 21:00 METAR CYGK 142100Z 32007KT 12SM VCSH SCT024TCU BKN073 OVC120 25/23 A2980 RMK
                 TCU3AC4AC1 SLP091 DENSITY ALT 1700FT =
2018-08-14 20:00 METAR CYGK 142000Z 32006KT 12SM -SHRA SCT025TCU BKN090 OVC220 24/23 A2980 RMK
                 TCU3AC4CI1 VIS LWR S SLP092 DENSITY ALT 1600FT =
2018-08-14 19:25 METAR CYGK 141925Z 34009KT 15SM -SHRA SCT024TCU BKN075 OVC120 24/21 A2980 RMK
                 TCU3AC2AC3 SLP093 DENSITY ALT 1600FT =
2018-08-14 19:00 METAR CYGK 141900Z 35011KT 15SM SCT022TCU BKN070 OVC120 25/22 A2980 RMK
                 TCU3AC3AC2 SLP093 DENSITY ALT 1700FT =
2018-08-14 18:00 METAR CYGK 141800Z 35008KT 320V030 15SM SCT022TCU BKN070 OVC140 26/22 A2982 RMK
                 TCU3AC2AC3 SLP098 DENSITY ALT 1800FT =
2018-08-14 17:00 METAR CYGK 141700Z 06006KT 010V080 15SM SCT018TCU BKN120 BKN210 25/21 A2984 RMK
                 TCU3AC2CI2 SLP105 DENSITY ALT 1700FT =
2018-08-14 16:43 METAR CYGK 141643Z 02006KT 350V060 15SM SCT016TCU BKN120 25/22 A2984 RMK TCU3AC4
                 SLP106 DENSITY ALT 1600FT =
2018-08-14 16:00 METAR CYGK 141600Z 05005KT 15SM -SHRA SCT017TCU BKN140 BKN220 24/22 A2985 RMK
                 TCU3AC2CI2 SLP109 DENSITY ALT 1500FT =
2018-08-14 15:39 METAR CYGK 141539Z 03006KT 12SM -SHRA SCT017 BKN120 24/22 A2985 RMK CU4AC3
                 SLP110 DENSITY ALT 1500FT =
2018-08-14 15:00 METAR CYGK 141500Z 07008KT 15SM SCT018 BKN085 OVC140 24/22 A2986 RMK CU3AC2AC3
                 SLP111 DENSITY ALT 1600FT =
2018-08-14 14:00 METAR CYGK 141400Z 05006KT 15SM FEW040 BKN130 24/22 A2985 RMK SC2AC5 SLP109
                 DENSITY ALT 1600FT =
2018-08-14 13:00 METAR CYGK 141300Z 02005KT 350V060 15SM FEW035 OVC120 23/22 A2986 RMK SC2AC6
                 SLP111 DENSITY ALT 1500FT =
2018-08-14 12:34 METAR CYGK 141234Z 36004KT 15SM FEW040 BKN130 23/22 A2986 RMK SC1AC6 SLP111
                 DENSITY ALT 1400FT =
2018-08-14 12:00 METAR CYGK 141200Z CCA 35007KT 15SM -RA FEW060 OVC130 22/21 A2986 RMK SC1AC7
                 SLP112 DENSITY ALT 1200FT =
2018-08-14 11:00 METAR CYGK 141100Z 36004KT 12SM -RA FEW040 SCT080 OVC130 21/21 A2987 RMK
                 SC2AC2AC4 SLP116 DENSITY ALT 1200FT =
2018-08-14 10:14 METAR CYGK 141014Z 04004KT 350V050 10SM -RA FEW060 OVC085 21/21 A2986 RMK SC2AC6
                 SLP113 DENSITY ALT 1200FT =
2018-08-14 10:00 METAR CYGK 141000Z 34007KT 10SM FEW060 OVC085 21/21 A2986 RMK SC2AC6 SLP111
                 DENSITY ALT 1200FT =

Support USWX by starting your Amazon purchase here.